createdAt,value
2019-05-15T00:01:19.451Z,1.50
2019-05-15T00:03:46.382Z,1.43
2019-05-15T00:06:13.417Z,1.30
2019-05-15T00:08:40.396Z,1.40
2019-05-15T00:11:08.275Z,1.47
2019-05-15T00:13:35.452Z,1.53
2019-05-15T00:16:02.654Z,1.70
2019-05-15T00:18:29.452Z,1.70
2019-05-15T00:20:59.438Z,1.60
2019-05-15T00:23:25.732Z,1.70
2019-05-15T00:25:52.595Z,1.63
2019-05-15T00:28:19.407Z,1.50
2019-05-15T00:30:48.114Z,1.50
2019-05-15T00:33:15.155Z,1.60
2019-05-15T00:35:41.905Z,1.90
2019-05-15T00:38:09.335Z,1.53
2019-05-15T00:40:39.177Z,1.70
2019-05-15T00:43:05.295Z,2.07
2019-05-15T00:45:32.070Z,1.60
2019-05-15T00:47:58.969Z,1.67
2019-05-15T00:50:25.828Z,1.40
2019-05-15T00:52:52.725Z,1.73
2019-05-15T00:55:19.402Z,1.67
2019-05-15T00:57:48.539Z,1.50
2019-05-15T01:00:22.130Z,1.60
2019-05-15T01:02:49.030Z,1.43
2019-05-15T01:05:16.097Z,1.70
2019-05-15T01:07:42.967Z,1.50
2019-05-15T01:10:10.080Z,1.80
2019-05-15T01:12:38.036Z,1.53
2019-05-15T01:15:05.310Z,1.80
2019-05-15T01:17:32.454Z,1.60
2019-05-15T01:19:59.862Z,1.53
2019-05-15T01:22:28.618Z,2.00
2019-05-15T01:24:55.744Z,1.60
2019-05-15T01:27:22.549Z,1.53
2019-05-15T01:29:49.542Z,1.60
2019-05-15T01:32:18.942Z,1.70
2019-05-15T01:34:46.078Z,1.50
2019-05-15T01:37:13.092Z,1.60
2019-05-15T01:39:39.891Z,1.80
2019-05-15T01:42:08.361Z,1.80
2019-05-15T01:44:35.358Z,1.70
2019-05-15T01:47:02.128Z,1.77
2019-05-15T01:49:28.918Z,2.27
2019-05-15T01:51:55.705Z,1.60
2019-05-15T01:54:22.412Z,1.87
2019-05-15T01:56:49.701Z,1.40
2019-05-15T01:59:18.781Z,1.73
2019-05-15T02:01:48.322Z,1.50
2019-05-15T02:04:14.543Z,2.13
2019-05-15T02:06:41.438Z,1.53
2019-05-15T02:09:08.535Z,1.60
2019-05-15T02:11:35.539Z,1.80
2019-05-15T02:14:05.079Z,1.80
2019-05-15T02:16:31.886Z,1.97
2019-05-15T02:18:58.663Z,1.70
2019-05-15T02:21:25.470Z,1.60
2019-05-15T02:23:52.239Z,1.70
2019-05-15T02:26:19.149Z,1.50
2019-05-15T02:28:46.022Z,1.60
2019-05-15T02:31:12.944Z,1.70
2019-05-15T02:33:40.425Z,1.60
2019-05-15T02:36:09.731Z,1.70
2019-05-15T02:38:40.427Z,1.80
2019-05-15T02:41:05.125Z,1.70
2019-05-15T02:43:32.041Z,1.90
2019-05-15T02:46:00.384Z,1.93
2019-05-15T02:48:28.990Z,1.50
2019-05-15T02:50:58.934Z,1.80
2019-05-15T02:53:26.113Z,1.97
2019-05-15T02:55:52.880Z,2.20
2019-05-15T02:58:21.224Z,1.97
2019-05-15T03:00:53.123Z,1.90
2019-05-15T03:03:20.134Z,2.10
2019-05-15T03:05:45.987Z,1.53
2019-05-15T03:08:14.794Z,2.27
2019-05-15T03:10:41.708Z,1.70
2019-05-15T03:13:09.671Z,1.83
2019-05-15T03:15:40.216Z,1.90
2019-05-15T03:18:09.187Z,2.00
2019-05-15T03:20:34.585Z,1.60
2019-05-15T03:23:01.346Z,1.73
2019-05-15T03:25:29.765Z,1.80
2019-05-15T03:27:59.589Z,1.63
2019-05-15T03:30:25.489Z,1.73
2019-05-15T03:33:00.780Z,1.80
2019-05-15T03:35:22.547Z,1.73
2019-05-15T03:37:49.963Z,2.20
2019-05-15T03:40:19.388Z,1.70
2019-05-15T03:42:45.524Z,2.40
2019-05-15T03:45:12.459Z,2.13
2019-05-15T03:47:40.059Z,1.70
2019-05-15T03:50:09.042Z,1.70
2019-05-15T03:52:39.080Z,1.70
2019-05-15T03:55:04.853Z,2.13
2019-05-15T03:57:31.687Z,1.80
2019-05-15T03:59:59.796Z,1.93
2019-05-15T04:02:28.782Z,1.70
2019-05-15T04:05:00.502Z,1.50
2019-05-15T04:07:25.056Z,2.00
2019-05-15T04:09:52.034Z,1.80
2019-05-15T04:12:19.725Z,1.70
2019-05-15T04:14:50.210Z,1.80
2019-05-15T04:17:19.811Z,1.77
2019-05-15T04:19:46.090Z,1.80
2019-05-15T04:22:12.943Z,1.83
2019-05-15T04:24:39.982Z,1.60
2019-05-15T04:27:10.489Z,1.83
2019-05-15T04:29:35.662Z,1.67
2019-05-15T04:32:06.024Z,1.73
2019-05-15T04:34:31.259Z,2.80
2019-05-15T04:36:58.691Z,1.70
2019-05-15T04:39:29.408Z,1.57
2019-05-15T04:41:55.144Z,1.60
2019-05-15T04:44:22.047Z,1.60
2019-05-15T04:46:49.857Z,1.77
2019-05-15T04:49:19.324Z,1.90
2019-05-15T04:51:45.733Z,1.80
2019-05-15T04:54:12.525Z,1.80
2019-05-15T04:56:40.125Z,1.70
2019-05-15T04:59:19.562Z,1.50
2019-05-15T05:01:46.487Z,1.67
2019-05-15T05:04:13.592Z,1.70
2019-05-15T05:06:40.440Z,1.87
2019-05-15T05:09:09.191Z,1.43
2019-05-15T05:11:38.338Z,1.67
2019-05-15T05:14:05.114Z,1.60
2019-05-15T05:16:31.887Z,1.70
2019-05-15T05:18:59.422Z,1.87
2019-05-15T05:21:27.834Z,1.37
2019-05-15T05:23:54.763Z,1.80
2019-05-15T05:26:21.529Z,1.57
2019-05-15T05:28:49.095Z,1.77
2019-05-15T05:31:18.848Z,1.50
2019-05-15T05:33:45.099Z,2.10
2019-05-15T05:36:11.850Z,1.80
2019-05-15T05:38:39.029Z,1.63
2019-05-15T05:41:08.170Z,1.27
2019-05-15T05:43:38.387Z,1.30
2019-05-15T05:46:05.101Z,1.30
2019-05-15T05:48:31.988Z,1.47
2019-05-15T05:50:58.862Z,1.30
2019-05-15T05:53:28.520Z,1.73
2019-05-15T05:55:54.975Z,1.37
2019-05-15T05:58:21.777Z,1.60
2019-05-15T06:00:49.545Z,1.77
2019-05-15T06:03:19.552Z,1.60
2019-05-15T06:05:45.443Z,1.57
2019-05-15T06:08:12.357Z,1.30
2019-05-15T06:10:39.296Z,1.30
2019-05-15T06:13:08.607Z,1.30
2019-05-15T06:15:35.036Z,1.50
2019-05-15T06:18:01.886Z,1.60
2019-05-15T06:20:28.801Z,1.20
2019-05-15T06:22:57.906Z,1.60
2019-05-15T06:25:24.255Z,1.73
2019-05-15T06:27:51.138Z,1.40
2019-05-15T06:30:26.532Z,1.30
2019-05-15T06:33:04.996Z,1.60
2019-05-15T06:35:19.447Z,1.40
2019-05-15T06:37:48.431Z,1.30
2019-05-15T06:40:15.192Z,1.37
2019-05-15T06:42:42.094Z,1.10
2019-05-15T06:45:15.169Z,1.30
2019-05-15T06:47:42.466Z,2.03
2019-05-15T06:50:09.878Z,1.40
2019-05-15T06:52:38.094Z,1.63
2019-05-15T06:55:05.780Z,1.30
2019-05-15T06:57:32.687Z,1.30
2019-05-15T06:59:59.551Z,1.20
2019-05-15T07:02:28.554Z,1.20
2019-05-15T07:04:55.098Z,1.07
2019-05-15T07:07:22.069Z,1.20
2019-05-15T07:09:48.878Z,1.30
2019-05-15T07:12:15.789Z,1.10
2019-05-15T07:14:42.611Z,1.00
2019-05-15T07:17:11.977Z,1.13
2019-05-15T07:19:40.219Z,0.90
2019-05-15T07:22:09.264Z,1.40
2019-05-15T07:24:38.209Z,1.00
2019-05-15T07:27:04.635Z,1.00
2019-05-15T07:29:31.398Z,1.07
2019-05-15T07:31:58.733Z,1.00
2019-05-15T07:34:25.490Z,1.20
2019-05-15T07:36:52.395Z,1.10
2019-05-15T07:39:19.245Z,1.10
2019-05-15T07:41:48.216Z,1.07
2019-05-15T07:44:15.344Z,1.10
2019-05-15T07:46:42.234Z,1.10
2019-05-15T07:49:09.278Z,1.00
2019-05-15T07:51:38.132Z,1.10
2019-05-15T07:54:05.468Z,1.20
2019-05-15T07:56:32.518Z,0.90
2019-05-15T07:58:59.670Z,1.00
2019-05-15T08:01:28.881Z,0.90
2019-05-15T08:04:09.306Z,0.80
2019-05-15T08:06:24.843Z,0.93
2019-05-15T08:08:51.994Z,0.90
2019-05-15T08:11:24.108Z,1.10
2019-05-15T08:13:48.718Z,1.13
2019-05-15T08:16:17.973Z,1.03
2019-05-15T08:18:44.714Z,1.03
2019-05-15T08:21:11.575Z,0.93
2019-05-15T08:23:39.114Z,1.20
2019-05-15T08:26:08.578Z,1.10
2019-05-15T08:28:38.063Z,1.33
2019-05-15T08:31:06.702Z,1.03
2019-05-15T08:33:32.859Z,1.03
2019-05-15T08:35:59.715Z,1.03
2019-05-15T08:38:28.818Z,0.97
2019-05-15T08:40:55.205Z,1.10
2019-05-15T08:43:22.123Z,1.10
2019-05-15T08:45:49.898Z,1.20
2019-05-15T08:48:18.489Z,1.10
2019-05-15T08:50:48.380Z,1.30
2019-05-15T08:53:14.489Z,0.90
2019-05-15T08:55:41.621Z,1.10
2019-05-15T08:58:13.676Z,1.23
2019-05-15T09:00:40.141Z,1.20
2019-05-15T09:03:08.565Z,0.97
2019-05-15T09:05:35.254Z,1.17
2019-05-15T09:08:02.053Z,1.00
2019-05-15T09:10:29.139Z,0.97
2019-05-15T09:12:58.513Z,1.00
2019-05-15T09:15:24.954Z,1.20
2019-05-15T09:18:07.712Z,1.10
2019-05-15T09:20:20.424Z,0.90
2019-05-15T09:22:48.966Z,0.90
2019-05-15T09:25:19.097Z,1.20
2019-05-15T09:27:45.228Z,1.00
2019-05-15T09:30:12.276Z,1.10
2019-05-15T09:32:39.540Z,0.90
2019-05-15T09:35:08.353Z,0.90
2019-05-15T09:37:38.294Z,0.93
2019-05-15T09:40:04.594Z,1.10
2019-05-15T09:42:31.485Z,1.00
2019-05-15T09:44:58.698Z,1.23
2019-05-15T09:47:29.490Z,1.00
2019-05-15T09:49:55.752Z,1.27
2019-05-15T09:52:23.229Z,1.10
2019-05-15T09:54:50.220Z,1.20
2019-05-15T09:57:18.774Z,1.10
2019-05-15T09:59:48.590Z,1.20
2019-05-15T10:02:14.616Z,1.40
2019-05-15T10:04:41.434Z,1.10
2019-05-15T10:07:08.369Z,1.10
2019-05-15T10:09:35.456Z,1.10
2019-05-15T10:12:02.304Z,1.30
2019-05-15T10:14:29.774Z,1.10
2019-05-15T10:16:58.408Z,1.30
2019-05-15T10:19:25.387Z,1.10
2019-05-15T10:21:53.209Z,1.20
2019-05-15T10:24:20.477Z,1.13
2019-05-15T10:26:49.095Z,1.43
2019-05-15T10:29:16.040Z,1.40
2019-05-15T10:31:42.919Z,1.20
2019-05-15T10:34:09.709Z,1.23
2019-05-15T10:36:41.373Z,1.27
2019-05-15T10:39:08.606Z,1.10
2019-05-15T10:41:35.544Z,1.10
2019-05-15T10:44:02.576Z,1.00
2019-05-15T10:46:29.473Z,1.30
2019-05-15T10:48:58.575Z,1.20
2019-05-15T10:51:25.131Z,1.17
2019-05-15T10:53:55.109Z,1.20
2019-05-15T10:56:22.318Z,1.20
2019-05-15T10:58:50.533Z,1.20
2019-05-15T11:01:19.223Z,1.20
2019-05-15T11:03:49.239Z,1.47
2019-05-15T11:06:15.041Z,1.10
2019-05-15T11:08:41.808Z,1.20
2019-05-15T11:11:09.298Z,1.10
2019-05-15T11:13:38.138Z,1.10
2019-05-15T11:16:05.214Z,1.40
2019-05-15T11:18:32.791Z,1.13
2019-05-15T11:21:00.188Z,1.30
2019-05-15T11:23:29.159Z,1.20
2019-05-15T11:25:57.989Z,1.30
2019-05-15T11:28:24.472Z,1.13
2019-05-15T11:30:52.126Z,1.10
2019-05-15T11:33:19.365Z,1.30
2019-05-15T11:35:57.875Z,1.30
2019-05-15T11:38:19.243Z,2.13
2019-05-15T11:40:45.717Z,1.70
2019-05-15T11:43:12.988Z,1.30
2019-05-15T11:45:39.881Z,1.70
2019-05-15T11:48:09.020Z,1.10
2019-05-15T11:50:39.715Z,1.10
2019-05-15T11:53:05.174Z,0.93
2019-05-15T11:55:32.371Z,1.20
2019-05-15T11:57:59.513Z,1.10
2019-05-15T12:00:29.533Z,1.40
2019-05-15T12:02:55.100Z,1.00
2019-05-15T12:05:22.124Z,1.40
2019-05-15T12:07:48.982Z,1.10
2019-05-15T12:10:18.441Z,1.23
2019-05-15T12:12:45.064Z,1.30
2019-05-15T12:15:12.268Z,1.20
2019-05-15T12:17:39.339Z,1.30
2019-05-15T12:20:07.279Z,1.20
2019-05-15T12:22:35.141Z,1.40
2019-05-15T12:25:02.152Z,1.50
2019-05-15T12:27:29.399Z,1.13
2019-05-15T12:29:59.756Z,1.30
2019-05-15T12:34:54.116Z,1.07
2019-05-15T12:37:21.536Z,1.20
2019-05-15T12:39:49.300Z,1.10
2019-05-15T13:02:05.251Z,1.20
2019-05-15T13:04:32.068Z,1.27
2019-05-15T13:07:12.149Z,1.40
2019-05-15T13:09:27.848Z,1.20
2019-05-15T13:11:54.678Z,1.20
2019-05-15T13:14:21.481Z,1.20
2019-05-15T13:16:48.228Z,1.30
2019-05-15T13:19:15.026Z,1.43
2019-05-15T13:21:41.783Z,1.40
2019-05-15T13:24:08.769Z,1.40
2019-05-15T13:26:38.303Z,1.47
2019-05-15T13:29:04.937Z,1.10
2019-05-15T13:31:32.593Z,1.10
2019-05-15T13:33:59.473Z,1.43
2019-05-15T13:36:28.841Z,1.20
2019-05-15T13:38:55.157Z,1.47
2019-05-15T13:41:22.384Z,1.40
2019-05-15T13:43:49.419Z,1.43
2019-05-15T13:46:20.437Z,1.27
2019-05-15T13:48:45.419Z,1.27
2019-05-15T13:51:12.308Z,1.20
2019-05-15T13:53:40.312Z,1.50
2019-05-15T13:56:07.652Z,1.47
2019-05-15T13:58:34.788Z,1.37
2019-05-15T14:01:01.775Z,1.37
2019-05-15T14:03:28.833Z,1.43
2019-05-15T14:05:58.147Z,1.37
2019-05-15T14:08:24.697Z,1.23
2019-05-15T14:10:51.581Z,1.40
2019-05-15T14:13:18.979Z,1.47
2019-05-15T14:15:45.850Z,1.30
2019-05-15T14:18:14.139Z,1.30
2019-05-15T14:20:51.113Z,1.20
2019-05-15T14:23:18.574Z,1.20
2019-05-15T14:25:48.061Z,1.33
2019-05-15T14:28:14.629Z,1.40
2019-05-15T14:30:41.403Z,1.40
2019-05-15T14:33:08.673Z,1.53
2019-05-15T14:35:37.766Z,1.37
2019-05-15T14:38:06.824Z,1.33
2019-05-15T14:40:33.195Z,1.40
2019-05-15T14:43:00.272Z,1.40
2019-05-15T14:45:28.037Z,1.50
2019-05-15T14:47:55.228Z,1.40
2019-05-15T14:50:21.967Z,1.30
2019-05-15T14:52:49.173Z,1.50
2019-05-15T14:55:16.790Z,1.40
2019-05-15T14:57:43.653Z,1.50
2019-05-15T15:00:10.671Z,1.33
2019-05-15T15:02:39.088Z,1.50
2019-05-15T15:05:08.932Z,1.50
2019-05-15T15:07:37.982Z,1.50
2019-05-15T15:10:04.589Z,1.67
2019-05-15T15:12:31.657Z,1.97
2019-05-15T15:14:58.415Z,1.50
2019-05-15T15:17:28.900Z,1.47
2019-05-15T15:19:59.961Z,1.70
2019-05-15T15:22:24.632Z,1.50
2019-05-15T15:24:51.389Z,1.30
2019-05-15T15:27:19.032Z,1.53
2019-05-15T15:29:48.166Z,1.50
2019-05-15T15:32:14.687Z,1.50
2019-05-15T15:34:41.538Z,1.60
2019-05-15T15:37:08.506Z,1.63
2019-05-15T15:39:35.172Z,1.27
2019-05-15T15:42:01.963Z,1.30
2019-05-15T15:44:29.181Z,1.20
2019-05-15T15:46:55.955Z,1.80
2019-05-15T15:49:23.093Z,1.57
2019-05-15T15:51:49.852Z,1.63
2019-05-15T15:54:18.814Z,1.43
2019-05-15T15:56:48.538Z,1.30
2019-05-15T15:59:14.856Z,1.83
2019-05-15T16:01:41.662Z,1.37
2019-05-15T16:04:08.714Z,1.90
2019-05-15T16:06:38.554Z,1.60
2019-05-15T16:09:08.316Z,1.37
2019-05-15T16:11:38.395Z,1.80
2019-05-15T16:14:08.967Z,1.50
2019-05-15T16:16:38.121Z,1.57
2019-05-15T16:19:05.489Z,1.60
2019-05-15T16:21:32.843Z,1.50
2019-05-15T16:24:12.489Z,1.30
2019-05-15T16:26:29.430Z,1.10
2019-05-15T16:28:57.993Z,1.67
2019-05-15T16:31:25.000Z,1.50
2019-05-15T16:33:51.905Z,1.70
2019-05-15T16:36:19.595Z,1.50
2019-05-15T16:38:48.189Z,1.37
2019-05-15T16:41:15.425Z,1.20
2019-05-15T16:43:42.840Z,1.30
2019-05-15T16:46:09.714Z,1.40
2019-05-15T16:48:38.964Z,1.70
2019-05-15T16:51:05.493Z,1.50
2019-05-15T16:53:32.652Z,1.40
2019-05-15T16:55:59.569Z,1.63
2019-05-15T16:58:29.522Z,1.60
2019-05-15T17:00:58.388Z,1.33
2019-05-15T17:03:25.539Z,1.33
2019-05-15T17:05:53.509Z,1.60
2019-05-15T17:08:22.427Z,1.30
2019-05-15T17:10:49.491Z,1.43
2019-05-15T17:13:16.963Z,1.37
2019-05-15T17:15:45.232Z,1.77
2019-05-15T17:18:12.083Z,1.20
2019-05-15T17:20:39.343Z,2.50
2019-05-15T17:23:08.535Z,1.10
2019-05-15T17:25:38.286Z,1.40
2019-05-15T17:28:06.105Z,1.40
2019-05-15T17:30:33.063Z,1.37
2019-05-15T17:32:59.864Z,1.20
2019-05-15T17:35:27.778Z,1.30
2019-05-15T17:37:54.904Z,1.70
2019-05-15T17:40:22.469Z,1.70
2019-05-15T17:42:50.203Z,1.60
2019-05-15T17:45:19.339Z,1.60
2019-05-15T17:47:48.616Z,1.57
2019-05-15T17:50:15.787Z,1.60
2019-05-15T17:52:43.007Z,1.77
2019-05-15T17:55:10.611Z,1.63
2019-05-15T17:57:38.859Z,1.60
2019-05-15T18:00:09.085Z,1.70
2019-05-15T18:02:37.996Z,1.53
2019-05-15T18:05:04.646Z,1.60
2019-05-15T18:07:33.362Z,1.70
2019-05-15T18:10:00.338Z,1.33
2019-05-15T18:12:29.231Z,1.60
2019-05-15T18:14:58.351Z,1.40
2019-05-15T18:17:25.325Z,1.50
2019-05-15T18:19:52.236Z,1.83
2019-05-15T18:22:18.896Z,1.50
2019-05-15T18:24:48.429Z,1.50
2019-05-15T18:27:14.819Z,1.30
2019-05-15T18:29:41.701Z,1.57
2019-05-15T18:32:08.755Z,1.80
2019-05-15T18:34:39.438Z,1.63
2019-05-15T18:37:05.559Z,1.77
2019-05-15T18:39:32.757Z,1.67
2019-05-15T18:41:59.690Z,1.63
2019-05-15T18:44:28.365Z,2.10
2019-05-15T18:46:55.464Z,1.97
2019-05-15T18:49:22.536Z,1.97
2019-05-15T18:51:49.902Z,1.80
2019-05-15T18:54:18.991Z,1.90
2019-05-15T18:56:45.827Z,2.10
2019-05-15T18:59:12.768Z,2.93
2019-05-15T19:01:40.150Z,2.70
2019-05-15T19:04:08.764Z,1.60
2019-05-15T19:06:38.211Z,2.03
2019-05-15T19:09:08.033Z,1.80
2019-05-15T19:11:35.395Z,1.70
2019-05-15T19:14:03.187Z,2.03
2019-05-15T19:16:31.727Z,2.23
2019-05-15T19:18:59.610Z,1.80
2019-05-15T19:21:27.805Z,1.93
2019-05-15T19:23:54.670Z,1.70
2019-05-15T19:26:28.818Z,2.17
2019-05-15T19:28:55.459Z,1.70
2019-05-15T19:31:27.021Z,2.10
2019-05-15T19:33:51.649Z,1.93
2019-05-15T19:36:18.518Z,1.63
2019-05-15T19:38:47.909Z,1.90
2019-05-15T19:41:15.382Z,1.70
2019-05-15T19:43:42.350Z,2.00
2019-05-15T19:46:09.592Z,1.73
2019-05-15T19:48:38.630Z,1.40
2019-05-15T19:51:08.782Z,1.60
2019-05-15T19:53:35.508Z,1.77
2019-05-15T19:56:02.681Z,2.00
2019-05-15T19:58:30.686Z,1.97
2019-05-15T20:00:58.276Z,1.63
2019-05-15T20:03:25.096Z,2.20
2019-05-15T20:05:52.185Z,1.87
2019-05-15T20:08:19.558Z,2.20
2019-05-15T20:10:47.923Z,1.90
2019-05-15T20:13:15.548Z,1.80
2019-05-15T20:15:43.093Z,1.77
2019-05-15T20:18:11.156Z,2.00
2019-05-15T20:20:38.812Z,1.90
2019-05-15T20:23:08.542Z,1.90
2019-05-15T20:25:35.212Z,2.30
2019-05-15T20:28:02.830Z,1.53
2019-05-15T20:30:29.884Z,1.63
2019-05-15T20:32:58.542Z,1.63
2019-05-15T20:35:28.248Z,1.70
2019-05-15T20:37:54.728Z,1.93
2019-05-15T20:40:22.019Z,1.40
2019-05-15T20:42:48.897Z,1.80
2019-05-15T20:45:18.476Z,2.00
2019-05-15T20:47:45.255Z,1.90
2019-05-15T20:50:12.171Z,1.50
2019-05-15T20:52:39.687Z,1.47
2019-05-15T20:55:07.983Z,1.90
2019-05-15T20:57:37.682Z,1.80
2019-05-15T21:00:04.299Z,1.60
2019-05-15T21:02:31.114Z,1.70
2019-05-15T21:04:58.381Z,2.00
2019-05-15T21:07:35.765Z,1.70
2019-05-15T21:09:55.415Z,1.90
2019-05-15T21:12:26.182Z,1.87
2019-05-15T21:14:51.161Z,1.57
2019-05-15T21:17:19.837Z,1.80
2019-05-15T21:19:48.823Z,1.37
2019-05-15T21:22:17.929Z,1.80
2019-05-15T21:24:44.241Z,1.60
2019-05-15T21:27:11.108Z,1.87
2019-05-15T21:29:38.210Z,2.10
2019-05-15T21:32:08.417Z,1.60
2019-05-15T21:34:40.636Z,1.87
2019-05-15T21:37:05.349Z,1.70
2019-05-15T21:39:32.493Z,1.80
2019-05-15T21:41:59.338Z,1.80
2019-05-15T21:44:26.237Z,1.77
2019-05-15T21:46:52.897Z,1.60
2019-05-15T21:49:19.900Z,1.57
2019-05-15T21:51:47.918Z,1.40
2019-05-15T21:54:14.980Z,1.73
2019-05-15T21:56:41.933Z,1.70
2019-05-15T21:59:08.693Z,1.60
2019-05-15T22:01:35.629Z,1.77
2019-05-15T22:04:02.976Z,1.53
2019-05-15T22:06:29.903Z,1.60
2019-05-15T22:08:58.328Z,1.47
2019-05-15T22:11:29.282Z,1.43
2019-05-15T22:13:54.073Z,1.50
2019-05-15T22:16:21.217Z,1.70
2019-05-15T22:18:48.278Z,1.50
2019-05-15T22:21:15.134Z,1.30
2019-05-15T22:23:42.027Z,1.53
2019-05-15T22:26:08.780Z,1.30
2019-05-15T22:28:35.816Z,1.40
2019-05-15T22:31:03.848Z,1.60
2019-05-15T22:33:30.748Z,1.40
2019-05-15T22:35:59.324Z,1.77
2019-05-15T22:38:28.403Z,1.53
2019-05-15T22:40:54.966Z,1.50
2019-05-15T22:43:21.762Z,1.57
2019-05-15T22:45:48.823Z,1.40
2019-05-15T22:48:18.064Z,1.63
2019-05-15T22:50:44.375Z,1.77
2019-05-15T22:53:11.173Z,1.47
2019-05-15T22:55:37.934Z,1.60
2019-05-15T22:58:05.157Z,1.50
2019-05-15T23:00:31.913Z,1.50
2019-05-15T23:02:58.825Z,1.40
2019-05-15T23:05:29.368Z,1.47
2019-05-15T23:07:55.604Z,1.70
2019-05-15T23:10:22.473Z,1.63
2019-05-15T23:12:49.650Z,2.00
2019-05-15T23:15:18.722Z,1.70
2019-05-15T23:17:45.424Z,1.70
2019-05-15T23:20:12.706Z,1.80
2019-05-15T23:22:39.458Z,1.50
2019-05-15T23:25:06.512Z,1.60
2019-05-15T23:27:33.293Z,1.77
2019-05-15T23:30:00.326Z,2.07
2019-05-15T23:32:28.926Z,1.73
2019-05-15T23:34:58.264Z,1.97
2019-05-15T23:37:24.707Z,1.60
2019-05-15T23:39:51.588Z,1.70
2019-05-15T23:42:18.629Z,1.90
2019-05-15T23:44:46.152Z,1.60
2019-05-15T23:47:12.963Z,2.13
2019-05-15T23:49:39.805Z,2.00
2019-05-15T23:52:08.726Z,1.70
2019-05-15T23:54:35.376Z,1.80
2019-05-15T23:57:02.198Z,2.00
2019-05-15T23:59:28.947Z,1.80
